sensor_id;sensor_type;location;lat;lon;timestamp;pressure;altitude;pressure_sealevel;temperature;humidity
15646;BME280;7922;43.622;1.476;2023-03-23T00:01:40;99667.44;;;12.51;65.86
15646;BME280;7922;43.622;1.476;2023-03-23T00:04:05;99742.38;;;12.90;66.11
15646;BME280;7922;43.622;1.476;2023-03-23T00:06:31;99645.66;;;12.45;66.15
15646;BME280;7922;43.622;1.476;2023-03-23T00:08:56;99743.81;;;12.95;66.34
15646;BME280;7922;43.622;1.476;2023-03-23T00:11:24;99670.94;;;12.52;66.88
15646;BME280;7922;43.622;1.476;2023-03-23T00:13:50;99695.47;;;12.73;66.86
15646;BME280;7922;43.622;1.476;2023-03-23T00:16:16;99656.81;;;12.51;66.92
15646;BME280;7922;43.622;1.476;2023-03-23T00:18:50;99725.59;;;12.89;67.31
15646;BME280;7922;43.622;1.476;2023-03-23T00:21:15;99721.56;;;12.82;67.18
15646;BME280;7922;43.622;1.476;2023-03-23T00:23:40;99624.25;;;12.32;67.35
15646;BME280;7922;43.622;1.476;2023-03-23T00:26:06;99714.34;;;12.84;67.33
15646;BME280;7922;43.622;1.476;2023-03-23T00:28:31;99652.50;;;12.49;67.21
15646;BME280;7922;43.622;1.476;2023-03-23T00:31:01;99628.34;;;12.38;67.55
15646;BME280;7922;43.622;1.476;2023-03-23T00:33:29;99700.44;;;12.79;67.22
15646;BME280;7922;43.622;1.476;2023-03-23T00:35:55;99686.81;;;12.69;67.91
15646;BME280;7922;43.622;1.476;2023-03-23T00:38:23;99632.56;;;12.42;67.90
15646;BME280;7922;43.622;1.476;2023-03-23T00:40:49;99715.88;;;12.88;68.63
15646;BME280;7922;43.622;1.476;2023-03-23T00:43:18;99710.91;;;12.82;68.72
15646;BME280;7922;43.622;1.476;2023-03-23T00:45:45;99661.44;;;12.48;69.57
15646;BME280;7922;43.622;1.476;2023-03-23T00:48:11;99717.31;;;12.78;69.79
15646;BME280;7922;43.622;1.476;2023-03-23T00:50:36;99697.44;;;12.69;70.45
15646;BME280;7922;43.622;1.476;2023-03-23T00:53:01;99701.22;;;12.65;71.36
15646;BME280;7922;43.622;1.476;2023-03-23T00:55:27;99702.25;;;12.63;71.98
15646;BME280;7922;43.622;1.476;2023-03-23T00:57:52;99718.38;;;12.75;72.18
15646;BME280;7922;43.622;1.476;2023-03-23T01:00:18;99685.09;;;12.52;72.67
15646;BME280;7922;43.622;1.476;2023-03-23T01:02:43;99684.16;;;12.53;73.38
15646;BME280;7922;43.622;1.476;2023-03-23T01:05:09;99707.91;;;12.57;74.22
15646;BME280;7922;43.622;1.476;2023-03-23T01:07:34;99633.50;;;12.09;75.25
15646;BME280;7922;43.622;1.476;2023-03-23T01:09:59;99700.53;;;12.46;75.68
15646;BME280;7922;43.622;1.476;2023-03-23T01:12:25;99699.84;;;12.42;75.80
15646;BME280;7922;43.622;1.476;2023-03-23T01:14:50;99706.44;;;12.35;76.53
15646;BME280;7922;43.622;1.476;2023-03-23T01:17:16;99675.72;;;12.14;76.50
15646;BME280;7922;43.622;1.476;2023-03-23T01:19:41;99645.53;;;11.99;77.16
15646;BME280;7922;43.622;1.476;2023-03-23T01:22:06;99666.53;;;12.03;77.66
15646;BME280;7922;43.622;1.476;2023-03-23T01:24:32;99617.94;;;11.68;78.27
15646;BME280;7922;43.622;1.476;2023-03-23T01:26:57;99655.00;;;11.87;78.55
15646;BME280;7922;43.622;1.476;2023-03-23T01:29:22;99665.44;;;11.90;79.22
15646;BME280;7922;43.622;1.476;2023-03-23T01:31:47;99699.88;;;12.09;79.54
15646;BME280;7922;43.622;1.476;2023-03-23T01:34:13;99698.47;;;12.02;79.28
15646;BME280;7922;43.622;1.476;2023-03-23T01:36:38;99647.75;;;11.73;80.10
15646;BME280;7922;43.622;1.476;2023-03-23T01:39:05;99631.84;;;11.56;80.15
15646;BME280;7922;43.622;1.476;2023-03-23T01:41:31;99701.69;;;11.91;80.46
15646;BME280;7922;43.622;1.476;2023-03-23T01:44:03;99698.25;;;11.89;80.82
15646;BME280;7922;43.622;1.476;2023-03-23T01:46:32;99681.03;;;11.79;81.40
15646;BME280;7922;43.622;1.476;2023-03-23T01:49:21;99658.28;;;11.57;81.65
15646;BME280;7922;43.622;1.476;2023-03-23T01:51:48;99569.09;;;11.04;81.97
15646;BME280;7922;43.622;1.476;2023-03-23T01:54:17;99645.56;;;11.47;82.54
15646;BME280;7922;43.622;1.476;2023-03-23T01:56:47;99686.06;;;11.68;83.56
15646;BME280;7922;43.622;1.476;2023-03-23T01:59:14;99611.44;;;11.23;83.64
15646;BME280;7922;43.622;1.476;2023-03-23T02:01:39;99654.16;;;11.52;83.74
15646;BME280;7922;43.622;1.476;2023-03-23T02:04:05;99594.28;;;11.13;84.45
15646;BME280;7922;43.622;1.476;2023-03-23T02:06:31;99644.34;;;11.37;84.57
15646;BME280;7922;43.622;1.476;2023-03-23T02:08:56;99657.53;;;11.38;85.05
15646;BME280;7922;43.622;1.476;2023-03-23T02:11:22;99690.97;;;11.58;85.61
15646;BME280;7922;43.622;1.476;2023-03-23T02:13:49;99626.63;;;11.20;85.77
15646;BME280;7922;43.622;1.476;2023-03-23T02:16:17;99696.66;;;11.50;86.01
15646;BME280;7922;43.622;1.476;2023-03-23T02:26:49;99635.69;;;11.16;87.77
15646;BME280;7922;43.622;1.476;2023-03-23T02:29:55;99679.34;;;11.43;87.66
15646;BME280;7922;43.622;1.476;2023-03-23T02:35:10;99580.84;;;10.81;88.14
15646;BME280;7922;43.622;1.476;2023-03-23T02:37:51;99661.81;;;11.41;88.63
15646;BME280;7922;43.622;1.476;2023-03-23T02:40:38;99650.50;;;11.37;89.15
15646;BME280;7922;43.622;1.476;2023-03-23T02:43:07;99591.22;;;11.03;88.82
15646;BME280;7922;43.622;1.476;2023-03-23T02:45:34;99654.16;;;11.52;88.60
15646;BME280;7922;43.622;1.476;2023-03-23T02:48:02;99637.41;;;11.34;88.94
15646;BME280;7922;43.622;1.476;2023-03-23T02:50:29;99556.56;;;10.91;88.93
15646;BME280;7922;43.622;1.476;2023-03-23T02:52:56;99667.72;;;11.46;89.43
15646;BME280;7922;43.622;1.476;2023-03-23T02:55:22;99595.91;;;10.98;89.61
15646;BME280;7922;43.622;1.476;2023-03-23T02:57:50;99643.09;;;11.26;89.97
15646;BME280;7922;43.622;1.476;2023-03-23T03:00:16;99649.16;;;11.28;90.55
15646;BME280;7922;43.622;1.476;2023-03-23T03:02:56;99649.00;;;11.31;90.19
15646;BME280;7922;43.622;1.476;2023-03-23T03:05:40;99665.47;;;11.38;90.59
15646;BME280;7922;43.622;1.476;2023-03-23T03:11:02;99662.28;;;11.31;90.70
15646;BME280;7922;43.622;1.476;2023-03-23T03:13:52;99664.94;;;11.31;90.72
15646;BME280;7922;43.622;1.476;2023-03-23T03:16:40;99657.81;;;11.32;91.21
15646;BME280;7922;43.622;1.476;2023-03-23T03:19:12;99623.53;;;11.12;90.80
15646;BME280;7922;43.622;1.476;2023-03-23T03:21:43;99628.50;;;11.18;90.77
15646;BME280;7922;43.622;1.476;2023-03-23T03:24:10;99620.78;;;11.13;91.01
15646;BME280;7922;43.622;1.476;2023-03-23T03:26:39;99623.34;;;11.15;90.99
15646;BME280;7922;43.622;1.476;2023-03-23T03:29:06;99577.38;;;10.98;91.09
15646;BME280;7922;43.622;1.476;2023-03-23T03:31:36;99568.00;;;10.91;90.96
15646;BME280;7922;43.622;1.476;2023-03-23T03:34:02;99602.94;;;11.17;90.11
15646;BME280;7922;43.622;1.476;2023-03-23T03:36:30;99631.31;;;11.32;90.23
15646;BME280;7922;43.622;1.476;2023-03-23T03:38:58;99579.31;;;11.12;90.50
15646;BME280;7922;43.622;1.476;2023-03-23T03:41:24;99616.19;;;11.34;90.44
15646;BME280;7922;43.622;1.476;2023-03-23T03:43:49;99630.50;;;11.47;90.12
15646;BME280;7922;43.622;1.476;2023-03-23T03:46:14;99614.22;;;11.38;89.99
15646;BME280;7922;43.622;1.476;2023-03-23T03:48:39;99575.03;;;11.09;89.74
15646;BME280;7922;43.622;1.476;2023-03-23T03:51:05;99637.84;;;11.42;89.95
15646;BME280;7922;43.622;1.476;2023-03-23T03:53:30;99609.53;;;11.25;90.27
15646;BME280;7922;43.622;1.476;2023-03-23T03:55:55;99613.38;;;11.20;90.62
15646;BME280;7922;43.622;1.476;2023-03-23T03:58:21;99568.00;;;10.91;90.15
15646;BME280;7922;43.622;1.476;2023-03-23T04:00:47;99606.69;;;11.13;90.71
15646;BME280;7922;43.622;1.476;2023-03-23T04:03:12;99658.47;;;11.37;90.66
15646;BME280;7922;43.622;1.476;2023-03-23T04:05:37;99589.28;;;10.90;90.96
15646;BME280;7922;43.622;1.476;2023-03-23T04:08:03;99561.97;;;10.70;90.76
15646;BME280;7922;43.622;1.476;2023-03-23T04:10:29;99648.56;;;11.23;90.69
15646;BME280;7922;43.622;1.476;2023-03-23T04:12:55;99583.69;;;10.78;91.26
15646;BME280;7922;43.622;1.476;2023-03-23T04:15:21;99603.53;;;10.87;90.67
15646;BME280;7922;43.622;1.476;2023-03-23T04:17:46;99667.97;;;11.24;90.90
15646;BME280;7922;43.622;1.476;2023-03-23T04:20:12;99654.84;;;11.21;90.69
15646;BME280;7922;43.622;1.476;2023-03-23T04:22:37;99589.44;;;10.87;90.69
15646;BME280;7922;43.622;1.476;2023-03-23T04:25:03;99573.28;;;10.74;90.66
15646;BME280;7922;43.622;1.476;2023-03-23T04:27:29;99636.38;;;11.19;90.16
15646;BME280;7922;43.622;1.476;2023-03-23T04:29:57;99593.56;;;10.92;90.05
15646;BME280;7922;43.622;1.476;2023-03-23T04:32:22;99654.41;;;11.30;90.05
15646;BME280;7922;43.622;1.476;2023-03-23T04:34:48;99651.06;;;11.26;89.71
15646;BME280;7922;43.622;1.476;2023-03-23T04:37:13;99673.91;;;11.46;89.62
15646;BME280;7922;43.622;1.476;2023-03-23T04:39:39;99680.91;;;11.47;89.91
15646;BME280;7922;43.622;1.476;2023-03-23T04:42:04;99602.78;;;11.02;89.78
15646;BME280;7922;43.622;1.476;2023-03-23T04:44:29;99633.09;;;11.14;89.90
15646;BME280;7922;43.622;1.476;2023-03-23T04:46:54;99682.88;;;11.44;89.82
15646;BME280;7922;43.622;1.476;2023-03-23T04:49:20;99625.13;;;11.14;89.32
15646;BME280;7922;43.622;1.476;2023-03-23T04:51:45;99632.00;;;11.18;89.17
15646;BME280;7922;43.622;1.476;2023-03-23T04:54:10;99655.25;;;11.30;89.36
15646;BME280;7922;43.622;1.476;2023-03-23T04:56:35;99687.09;;;11.48;89.12
15646;BME280;7922;43.622;1.476;2023-03-23T04:59:01;99651.06;;;11.26;89.09
15646;BME280;7922;43.622;1.476;2023-03-23T05:01:26;99730.91;;;11.72;89.14
15646;BME280;7922;43.622;1.476;2023-03-23T05:03:51;99723.66;;;11.76;89.36
15646;BME280;7922;43.622;1.476;2023-03-23T05:06:17;99715.41;;;11.65;89.29
15646;BME280;7922;43.622;1.476;2023-03-23T05:08:42;99710.09;;;11.65;89.45
15646;BME280;7922;43.622;1.476;2023-03-23T05:11:07;99681.78;;;11.48;89.53
15646;BME280;7922;43.622;1.476;2023-03-23T05:13:33;99703.22;;;11.61;89.38
15646;BME280;7922;43.622;1.476;2023-03-23T05:16:02;99663.69;;;11.39;89.29
15646;BME280;7922;43.622;1.476;2023-03-23T05:18:27;99683.56;;;11.47;89.70
15646;BME280;7922;43.622;1.476;2023-03-23T05:20:53;99660.56;;;11.30;89.76
15646;BME280;7922;43.622;1.476;2023-03-23T05:23:18;99670.16;;;11.33;89.90
15646;BME280;7922;43.622;1.476;2023-03-23T05:25:44;99666.81;;;11.29;89.87
15646;BME280;7922;43.622;1.476;2023-03-23T05:28:10;99731.47;;;11.62;90.62
15646;BME280;7922;43.622;1.476;2023-03-23T05:30:36;99746.13;;;11.69;89.84
15646;BME280;7922;43.622;1.476;2023-03-23T05:33:01;99675.78;;;11.27;89.81
15646;BME280;7922;43.622;1.476;2023-03-23T05:35:27;99708.13;;;11.51;89.75
15646;BME280;7922;43.622;1.476;2023-03-23T05:37:52;99685.75;;;11.39;90.03
15646;BME280;7922;43.622;1.476;2023-03-23T05:40:17;99665.06;;;11.28;89.46
15646;BME280;7922;43.622;1.476;2023-03-23T05:42:43;99719.25;;;11.59;90.02
15646;BME280;7922;43.622;1.476;2023-03-23T05:45:09;99725.25;;;11.63;90.20
15646;BME280;7922;43.622;1.476;2023-03-23T05:47:35;99672.47;;;11.22;90.57
15646;BME280;7922;43.622;1.476;2023-03-23T05:50:00;99691.75;;;11.25;90.54
15646;BME280;7922;43.622;1.476;2023-03-23T05:52:26;99717.50;;;11.41;90.96
15646;BME280;7922;43.622;1.476;2023-03-23T05:54:51;99659.00;;;11.09;90.86
15646;BME280;7922;43.622;1.476;2023-03-23T05:57:18;99719.06;;;11.45;90.84
15646;BME280;7922;43.622;1.476;2023-03-23T05:59:44;99696.75;;;11.31;90.61
15646;BME280;7922;43.622;1.476;2023-03-23T06:02:10;99737.97;;;11.56;90.97
15646;BME280;7922;43.622;1.476;2023-03-23T06:04:36;99674.41;;;11.18;90.63
15646;BME280;7922;43.622;1.476;2023-03-23T06:07:01;99720.34;;;11.55;90.65
15646;BME280;7922;43.622;1.476;2023-03-23T06:09:27;99677.19;;;11.34;90.11
15646;BME280;7922;43.622;1.476;2023-03-23T06:11:52;99728.34;;;11.71;90.33
15646;BME280;7922;43.622;1.476;2023-03-23T06:14:17;99672.50;;;11.39;89.83
15646;BME280;7922;43.622;1.476;2023-03-23T06:16:43;99740.13;;;11.82;90.16
15646;BME280;7922;43.622;1.476;2023-03-23T06:19:08;99693.88;;;11.53;89.75
15646;BME280;7922;43.622;1.476;2023-03-23T06:21:34;99650.97;;;11.28;89.79
15646;BME280;7922;43.622;1.476;2023-03-23T06:24:00;99744.53;;;11.84;89.67
15646;BME280;7922;43.622;1.476;2023-03-23T06:26:32;99745.41;;;11.84;89.36
15646;BME280;7922;43.622;1.476;2023-03-23T06:28:58;99752.03;;;11.93;89.26
15646;BME280;7922;43.622;1.476;2023-03-23T06:31:24;99768.25;;;12.04;88.95
15646;BME280;7922;43.622;1.476;2023-03-23T06:33:50;99766.25;;;12.09;88.47
15646;BME280;7922;43.622;1.476;2023-03-23T06:36:15;99700.81;;;11.73;87.85
15646;BME280;7922;43.622;1.476;2023-03-23T06:38:40;99765.34;;;12.26;87.46
15646;BME280;7922;43.622;1.476;2023-03-23T06:41:06;99735.94;;;12.13;87.08
15646;BME280;7922;43.622;1.476;2023-03-23T06:43:31;99763.75;;;12.39;86.78
15646;BME280;7922;43.622;1.476;2023-03-23T06:45:59;99792.97;;;12.72;86.06
15646;BME280;7922;43.622;1.476;2023-03-23T06:48:25;99760.47;;;12.67;85.33
15646;BME280;7922;43.622;1.476;2023-03-23T06:50:50;99746.72;;;12.59;85.40
15646;BME280;7922;43.622;1.476;2023-03-23T06:53:15;99710.56;;;12.23;85.25
15646;BME280;7922;43.622;1.476;2023-03-23T06:55:42;99735.66;;;12.51;84.95
15646;BME280;7922;43.622;1.476;2023-03-23T06:58:08;99816.47;;;12.96;84.49
15646;BME280;7922;43.622;1.476;2023-03-23T07:00:33;99754.72;;;12.91;83.41
15646;BME280;7922;43.622;1.476;2023-03-23T07:02:59;99776.25;;;13.18;82.67
15646;BME280;7922;43.622;1.476;2023-03-23T07:05:24;99799.50;;;13.46;81.63
15646;BME280;7922;43.622;1.476;2023-03-23T07:07:49;99786.66;;;13.38;82.27
15646;BME280;7922;43.622;1.476;2023-03-23T07:10:14;99836.50;;;13.51;81.92
15646;BME280;7922;43.622;1.476;2023-03-23T07:12:40;99752.75;;;13.10;82.09
15646;BME280;7922;43.622;1.476;2023-03-23T07:15:06;99791.13;;;13.38;81.57
15646;BME280;7922;43.622;1.476;2023-03-23T07:17:31;99750.88;;;13.12;81.85
15646;BME280;7922;43.622;1.476;2023-03-23T07:19:56;99814.00;;;13.56;81.69
15646;BME280;7922;43.622;1.476;2023-03-23T07:22:22;99818.72;;;13.67;81.10
15646;BME280;7922;43.622;1.476;2023-03-23T07:24:47;99761.22;;;13.17;81.73
15646;BME280;7922;43.622;1.476;2023-03-23T07:27:13;99779.94;;;13.15;81.50
15646;BME280;7922;43.622;1.476;2023-03-23T07:29:38;99796.84;;;13.14;82.31
15646;BME280;7922;43.622;1.476;2023-03-23T07:32:04;99773.75;;;12.99;82.34
15646;BME280;7922;43.622;1.476;2023-03-23T07:34:29;99860.41;;;13.36;82.82
15646;BME280;7922;43.622;1.476;2023-03-23T07:36:54;99865.44;;;13.41;82.28
15646;BME280;7922;43.622;1.476;2023-03-23T07:39:20;99797.38;;;13.05;82.33
15646;BME280;7922;43.622;1.476;2023-03-23T07:41:45;99824.44;;;13.29;82.75
15646;BME280;7922;43.622;1.476;2023-03-23T07:44:11;99835.56;;;13.36;82.81
15646;BME280;7922;43.622;1.476;2023-03-23T07:46:36;99847.94;;;13.53;82.64
15646;BME280;7922;43.622;1.476;2023-03-23T07:49:01;99868.84;;;13.75;82.30
15646;BME280;7922;43.622;1.476;2023-03-23T07:51:27;99874.41;;;13.86;82.10
15646;BME280;7922;43.622;1.476;2023-03-23T07:53:52;99790.16;;;13.55;80.90
15646;BME280;7922;43.622;1.476;2023-03-23T07:56:17;99814.53;;;13.63;81.30
15646;BME280;7922;43.622;1.476;2023-03-23T07:58:43;99860.06;;;13.88;81.60
15646;BME280;7922;43.622;1.476;2023-03-23T08:01:08;99799.88;;;13.40;81.98
15646;BME280;7922;43.622;1.476;2023-03-23T08:03:33;99816.66;;;13.56;82.05
15646;BME280;7922;43.622;1.476;2023-03-23T08:05:59;99874.06;;;13.92;82.08
15646;BME280;7922;43.622;1.476;2023-03-23T08:08:25;99838.31;;;13.66;82.22
15646;BME280;7922;43.622;1.476;2023-03-23T08:10:50;99859.03;;;13.91;82.32
15646;BME280;7922;43.622;1.476;2023-03-23T08:13:17;99812.66;;;13.95;81.24
15646;BME280;7922;43.622;1.476;2023-03-23T08:15:42;99797.41;;;13.97;80.65
15646;BME280;7922;43.622;1.476;2023-03-23T08:18:08;99788.53;;;14.27;80.50
15646;BME280;7922;43.622;1.476;2023-03-23T08:20:33;99785.41;;;14.49;79.12
15646;BME280;7922;43.622;1.476;2023-03-23T08:22:59;99775.19;;;14.57;79.05
15646;BME280;7922;43.622;1.476;2023-03-23T08:25:24;99838.28;;;14.85;79.08
15646;BME280;7922;43.622;1.476;2023-03-23T08:27:50;99765.50;;;14.26;79.73
15646;BME280;7922;43.622;1.476;2023-03-23T08:30:18;99828.09;;;14.63;79.91
15646;BME280;7922;43.622;1.476;2023-03-23T08:32:43;99801.16;;;14.53;79.83
15646;BME280;7922;43.622;1.476;2023-03-23T08:35:10;99822.31;;;14.71;79.43
15646;BME280;7922;43.622;1.476;2023-03-23T08:37:37;99783.34;;;14.68;78.83
15646;BME280;7922;43.622;1.476;2023-03-23T08:40:06;99775.00;;;15.15;76.69
15646;BME280;7922;43.622;1.476;2023-03-23T08:42:31;99817.44;;;15.74;75.67
15646;BME280;7922;43.622;1.476;2023-03-23T08:44:57;99848.38;;;16.56;74.09
15646;BME280;7922;43.622;1.476;2023-03-23T08:47:22;99802.81;;;16.58;71.92
15646;BME280;7922;43.622;1.476;2023-03-23T08:49:47;99803.66;;;16.58;71.88
15646;BME280;7922;43.622;1.476;2023-03-23T08:52:12;99860.56;;;16.73;71.80
15646;BME280;7922;43.622;1.476;2023-03-23T08:54:38;99813.69;;;16.17;72.93
15646;BME280;7922;43.622;1.476;2023-03-23T08:57:03;99809.19;;;16.04;73.51
15646;BME280;7922;43.622;1.476;2023-03-23T08:59:28;99819.56;;;16.09;73.28
15646;BME280;7922;43.622;1.476;2023-03-23T09:01:54;99852.94;;;16.29;73.38
15646;BME280;7922;43.622;1.476;2023-03-23T09:04:20;99886.31;;;16.36;72.99
15646;BME280;7922;43.622;1.476;2023-03-23T09:06:45;99864.75;;;15.99;74.28
15646;BME280;7922;43.622;1.476;2023-03-23T09:09:11;99860.06;;;16.03;74.07
15646;BME280;7922;43.622;1.476;2023-03-23T09:11:36;99865.75;;;16.11;73.88
15646;BME280;7922;43.622;1.476;2023-03-23T09:14:03;99812.56;;;15.81;73.82
15646;BME280;7922;43.622;1.476;2023-03-23T09:16:29;99836.84;;;15.91;74.35
15646;BME280;7922;43.622;1.476;2023-03-23T09:18:57;99855.50;;;16.18;73.79
15646;BME280;7922;43.622;1.476;2023-03-23T09:21:24;99834.06;;;16.05;73.59
15646;BME280;7922;43.622;1.476;2023-03-23T09:23:49;99858.84;;;16.34;73.38
15646;BME280;7922;43.622;1.476;2023-03-23T09:26:15;99847.31;;;16.46;72.40
15646;BME280;7922;43.622;1.476;2023-03-23T09:28:40;99824.84;;;16.61;72.17
15646;BME280;7922;43.622;1.476;2023-03-23T09:31:06;99800.34;;;16.42;72.29
15646;BME280;7922;43.622;1.476;2023-03-23T09:33:31;99808.47;;;16.92;71.50
15646;BME280;7922;43.622;1.476;2023-03-23T09:35:56;99838.22;;;17.00;70.93
15646;BME280;7922;43.622;1.476;2023-03-23T09:38:22;99833.94;;;16.84;71.75
15646;BME280;7922;43.622;1.476;2023-03-23T09:40:50;99813.63;;;16.31;72.15
15646;BME280;7922;43.622;1.476;2023-03-23T09:48:55;99896.78;;;16.79;71.79
15646;BME280;7922;43.622;1.476;2023-03-23T09:54:05;99832.22;;;16.58;72.15
15646;BME280;7922;43.622;1.476;2023-03-23T09:56:34;99850.53;;;16.90;71.08
15646;BME280;7922;43.622;1.476;2023-03-23T09:59:11;99830.28;;;16.73;70.95
15646;BME280;7922;43.622;1.476;2023-03-23T10:01:45;99864.94;;;17.13;71.01
15646;BME280;7922;43.622;1.476;2023-03-23T10:04:46;99895.25;;;17.26;70.58
15646;BME280;7922;43.622;1.476;2023-03-23T10:07:16;99855.00;;;17.15;70.72
15646;BME280;7922;43.622;1.476;2023-03-23T10:09:43;99889.38;;;17.08;71.08
15646;BME280;7922;43.622;1.476;2023-03-23T10:15:20;99892.41;;;16.78;72.29
15646;BME280;7922;43.622;1.476;2023-03-23T10:17:58;99807.50;;;16.54;72.02
15646;BME280;7922;43.622;1.476;2023-03-23T10:25:50;99889.16;;;16.98;72.37
15646;BME280;7922;43.622;1.476;2023-03-23T10:28:36;99880.28;;;16.98;71.92
15646;BME280;7922;43.622;1.476;2023-03-23T10:31:03;99856.84;;;17.01;71.61
15646;BME280;7922;43.622;1.476;2023-03-23T10:33:47;99846.69;;;16.94;70.96
15646;BME280;7922;43.622;1.476;2023-03-23T10:36:30;99890.66;;;17.02;71.64
15646;BME280;7922;43.622;1.476;2023-03-23T10:39:15;99872.91;;;17.14;71.48
15646;BME280;7922;43.622;1.476;2023-03-23T10:41:43;99869.03;;;17.18;71.54
15646;BME280;7922;43.622;1.476;2023-03-23T10:44:17;99885.75;;;17.46;70.77
15646;BME280;7922;43.622;1.476;2023-03-23T10:46:47;99847.53;;;17.44;70.17
15646;BME280;7922;43.622;1.476;2023-03-23T10:49:21;99829.63;;;17.81;68.79
15646;BME280;7922;43.622;1.476;2023-03-23T10:52:00;99873.78;;;18.23;67.95
15646;BME280;7922;43.622;1.476;2023-03-23T10:54:35;99891.06;;;18.66;67.58
15646;BME280;7922;43.622;1.476;2023-03-23T10:57:00;99861.91;;;18.50;65.90
15646;BME280;7922;43.622;1.476;2023-03-23T10:59:39;99817.53;;;17.75;67.62
15646;BME280;7922;43.622;1.476;2023-03-23T11:02:14;99819.13;;;18.02;67.67
15646;BME280;7922;43.622;1.476;2023-03-23T11:04:41;99844.56;;;18.32;67.74
15646;BME280;7922;43.622;1.476;2023-03-23T11:07:18;99840.00;;;18.21;68.07
15646;BME280;7922;43.622;1.476;2023-03-23T11:09:53;99796.88;;;17.89;68.06
15646;BME280;7922;43.622;1.476;2023-03-23T11:12:20;99778.78;;;18.03;68.22
15646;BME280;7922;43.622;1.476;2023-03-23T11:14:46;99773.47;;;18.26;67.46
15646;BME280;7922;43.622;1.476;2023-03-23T11:17:22;99809.25;;;18.49;66.56
15646;BME280;7922;43.622;1.476;2023-03-23T11:19:47;99807.28;;;18.51;66.35
15646;BME280;7922;43.622;1.476;2023-03-23T11:22:20;99806.69;;;18.59;66.54
15646;BME280;7922;43.622;1.476;2023-03-23T11:24:52;99795.94;;;18.59;66.90
15646;BME280;7922;43.622;1.476;2023-03-23T11:27:19;99743.28;;;18.46;66.73
15646;BME280;7922;43.622;1.476;2023-03-23T11:29:52;99786.22;;;18.80;65.56
15646;BME280;7922;43.622;1.476;2023-03-23T11:32:22;99721.94;;;18.56;66.11
15646;BME280;7922;43.622;1.476;2023-03-23T11:34:54;99737.78;;;18.93;65.81
15646;BME280;7922;43.622;1.476;2023-03-23T11:37:41;99763.19;;;18.78;64.84
15646;BME280;7922;43.622;1.476;2023-03-23T11:45:35;99796.16;;;19.34;64.32
15646;BME280;7922;43.622;1.476;2023-03-23T11:50:50;99791.91;;;19.43;63.64
15646;BME280;7922;43.622;1.476;2023-03-23T11:53:25;99730.09;;;18.77;64.19
15646;BME280;7922;43.622;1.476;2023-03-23T11:56:08;99757.16;;;19.08;64.59
15646;BME280;7922;43.622;1.476;2023-03-23T11:58:36;99766.34;;;19.48;63.22
15646;BME280;7922;43.622;1.476;2023-03-23T12:01:10;99722.25;;;19.51;62.60
15646;BME280;7922;43.622;1.476;2023-03-23T12:04:03;99737.59;;;19.17;63.07
15646;BME280;7922;43.622;1.476;2023-03-23T12:09:22;99771.78;;;19.69;60.94
15646;BME280;7922;43.622;1.476;2023-03-23T12:11:55;99760.91;;;19.60;61.93
15646;BME280;7922;43.622;1.476;2023-03-23T12:17:19;99757.31;;;19.38;62.22
15646;BME280;7922;43.622;1.476;2023-03-23T12:26:00;99733.72;;;19.85;60.72
15646;BME280;7922;43.622;1.476;2023-03-23T12:28:39;99669.53;;;19.39;59.97
15646;BME280;7922;43.622;1.476;2023-03-23T12:34:05;99727.03;;;19.80;61.82
15646;BME280;7922;43.622;1.476;2023-03-23T12:44:15;99658.69;;;19.08;61.35
15646;BME280;7922;43.622;1.476;2023-03-23T12:49:41;99698.31;;;19.16;62.29
15646;BME280;7922;43.622;1.476;2023-03-23T12:55:02;99673.25;;;18.83;64.08
15646;BME280;7922;43.622;1.476;2023-03-23T12:57:37;99654.72;;;18.80;64.81
15646;BME280;7922;43.622;1.476;2023-03-23T13:03:02;99671.16;;;18.98;63.17
15646;BME280;7922;43.622;1.476;2023-03-23T13:05:40;99648.25;;;18.83;63.53
15646;BME280;7922;43.622;1.476;2023-03-23T13:08:18;99656.91;;;18.86;64.00
15646;BME280;7922;43.622;1.476;2023-03-23T13:10:47;99665.81;;;18.87;64.49
15646;BME280;7922;43.622;1.476;2023-03-23T13:22:11;99652.22;;;19.32;62.37
15646;BME280;7922;43.622;1.476;2023-03-23T13:24:51;99641.16;;;18.93;62.49
15646;BME280;7922;43.622;1.476;2023-03-23T13:27:17;99596.28;;;18.84;62.98
15646;BME280;7922;43.622;1.476;2023-03-23T13:29:45;99597.81;;;18.97;63.11
15646;BME280;7922;43.622;1.476;2023-03-23T13:32:15;99619.25;;;19.09;62.73
15646;BME280;7922;43.622;1.476;2023-03-23T13:34:40;99638.94;;;19.30;62.67
15646;BME280;7922;43.622;1.476;2023-03-23T13:37:11;99589.47;;;19.12;61.82
15646;BME280;7922;43.622;1.476;2023-03-23T13:39:56;99596.81;;;19.52;61.69
15646;BME280;7922;43.622;1.476;2023-03-23T13:42:24;99630.66;;;19.75;60.95
15646;BME280;7922;43.622;1.476;2023-03-23T13:49:51;99542.06;;;19.43;60.29
15646;BME280;7922;43.622;1.476;2023-03-23T13:58:10;99586.81;;;20.05;61.06
15646;BME280;7922;43.622;1.476;2023-03-23T14:00:46;99603.41;;;20.51;59.85
15646;BME280;7922;43.622;1.476;2023-03-23T14:03:25;99547.66;;;20.22;59.37
15646;BME280;7922;43.622;1.476;2023-03-23T14:06:03;99592.41;;;20.23;59.95
15646;BME280;7922;43.622;1.476;2023-03-23T14:10:55;99581.78;;;19.91;60.36
15646;BME280;7922;43.622;1.476;2023-03-23T14:19:01;99536.66;;;19.64;60.69
15646;BME280;7922;43.622;1.476;2023-03-23T14:23:55;99557.09;;;19.55;61.56
15646;BME280;7922;43.622;1.476;2023-03-23T14:26:21;99541.72;;;19.36;61.61
15646;BME280;7922;43.622;1.476;2023-03-23T14:28:51;99516.09;;;18.90;62.44
15646;BME280;7922;43.622;1.476;2023-03-23T14:31:20;99521.38;;;18.81;62.05
15646;BME280;7922;43.622;1.476;2023-03-23T14:33:47;99549.97;;;19.03;62.12
15646;BME280;7922;43.622;1.476;2023-03-23T14:36:18;99557.38;;;19.10;63.08
15646;BME280;7922;43.622;1.476;2023-03-23T14:38:44;99545.84;;;18.98;62.14
15646;BME280;7922;43.622;1.476;2023-03-23T14:41:11;99538.69;;;18.88;62.08
15646;BME280;7922;43.622;1.476;2023-03-23T14:43:37;99544.72;;;19.01;62.40
15646;BME280;7922;43.622;1.476;2023-03-23T14:46:06;99566.66;;;19.06;62.67
15646;BME280;7922;43.622;1.476;2023-03-23T14:48:32;99523.22;;;18.80;62.66
15646;BME280;7922;43.622;1.476;2023-03-23T14:51:03;99529.44;;;18.81;62.54
15646;BME280;7922;43.622;1.476;2023-03-23T14:53:38;99539.88;;;18.74;62.22
15646;BME280;7922;43.622;1.476;2023-03-23T14:56:11;99539.97;;;18.72;63.05